createdAt,value
2023-01-25T00:01:56.115Z,35.20
2023-01-25T00:04:25.685Z,35.87
2023-01-25T00:06:55.859Z,34.23
2023-01-25T00:09:26.287Z,32.10
2023-01-25T00:11:57.989Z,34.83
2023-01-25T00:14:25.513Z,37.20
2023-01-25T00:16:55.113Z,37.90
2023-01-25T00:19:24.759Z,33.13
2023-01-25T00:21:52.153Z,34.93
2023-01-25T00:24:22.957Z,35.07
2023-01-25T00:26:52.303Z,34.83
2023-01-25T00:29:21.777Z,36.00
2023-01-25T00:31:59.085Z,36.93
2023-01-25T00:34:26.235Z,35.50
2023-01-25T00:36:57.568Z,33.53
2023-01-25T00:39:28.068Z,34.57
2023-01-25T00:41:55.914Z,33.20
2023-01-25T00:44:23.090Z,39.47
2023-01-25T00:46:52.678Z,36.37
2023-01-25T00:49:25.251Z,36.57
2023-01-25T00:51:55.934Z,40.27
2023-01-25T00:54:23.241Z,34.83
2023-01-25T00:56:55.121Z,36.43
2023-01-25T00:59:23.680Z,37.80
2023-01-25T01:01:54.476Z,36.37
2023-01-25T01:04:25.143Z,33.47
2023-01-25T01:06:57.656Z,31.30
2023-01-25T01:09:24.978Z,36.90
2023-01-25T01:11:55.247Z,35.87
2023-01-25T01:14:23.680Z,36.13
2023-01-25T01:16:50.935Z,38.10
2023-01-25T01:19:19.008Z,33.67
2023-01-25T01:21:46.265Z,36.57
2023-01-25T01:24:16.184Z,36.03
2023-01-25T01:26:43.347Z,33.43
2023-01-25T01:29:13.138Z,37.10
2023-01-25T01:31:42.457Z,37.50
2023-01-25T01:34:15.198Z,35.87
2023-01-25T01:36:47.316Z,36.37
2023-01-25T01:39:14.648Z,36.67
2023-01-25T01:41:46.725Z,35.13
2023-01-25T01:44:19.255Z,33.50
2023-01-25T01:46:57.332Z,39.27
2023-01-25T01:49:31.213Z,36.13
2023-01-25T01:52:01.165Z,36.20
2023-01-25T01:55:01.399Z,40.37
2023-01-25T01:57:55.415Z,39.90
2023-01-25T02:00:31.206Z,36.20
2023-01-25T02:03:01.397Z,37.63
2023-01-25T02:05:48.529Z,38.37
2023-01-25T02:08:19.405Z,35.17
2023-01-25T02:10:49.207Z,34.67
2023-01-25T02:13:18.678Z,36.70
2023-01-25T02:15:49.585Z,43.90
2023-01-25T02:18:19.911Z,37.10
2023-01-25T02:20:54.594Z,36.03
2023-01-25T02:23:38.684Z,35.43
2023-01-25T02:26:07.067Z,32.67
2023-01-25T02:28:43.906Z,34.80
2023-01-25T02:31:14.236Z,38.60
2023-01-25T02:33:43.889Z,39.80
2023-01-25T02:36:24.680Z,41.40
2023-01-25T02:38:54.365Z,38.23
2023-01-25T02:41:27.286Z,40.37
2023-01-25T02:43:59.659Z,37.27
2023-01-25T02:46:31.900Z,39.67
2023-01-25T02:49:03.069Z,39.57
2023-01-25T02:51:33.857Z,39.53
2023-01-25T02:54:02.648Z,41.20
2023-01-25T02:56:30.282Z,39.20
2023-01-25T02:59:05.420Z,37.63
2023-01-25T03:01:41.671Z,36.90
2023-01-25T03:04:14.368Z,37.37
2023-01-25T03:06:42.056Z,36.90
2023-01-25T03:09:12.690Z,37.67
2023-01-25T03:11:44.407Z,40.73
2023-01-25T03:14:13.735Z,38.20
2023-01-25T03:16:40.992Z,39.80
2023-01-25T03:19:11.234Z,41.90
2023-01-25T03:21:41.412Z,43.70
2023-01-25T03:24:11.510Z,40.30
2023-01-25T03:26:59.861Z,41.37
2023-01-25T03:29:29.285Z,42.37
2023-01-25T03:31:56.530Z,41.70
2023-01-25T03:34:23.685Z,45.40
2023-01-25T03:36:50.872Z,39.60
2023-01-25T03:39:18.191Z,42.67
2023-01-25T03:41:45.344Z,43.33
2023-01-25T03:44:13.141Z,42.93
2023-01-25T03:46:41.719Z,47.83
2023-01-25T03:49:11.493Z,43.17
2023-01-25T03:51:41.231Z,45.20
2023-01-25T03:54:10.506Z,45.17
2023-01-25T03:56:38.691Z,44.20
2023-01-25T03:59:08.451Z,44.63
2023-01-25T04:01:37.570Z,44.33
2023-01-25T04:04:04.742Z,49.37
2023-01-25T04:06:32.033Z,46.20
2023-01-25T04:08:59.199Z,47.70
2023-01-25T04:11:26.381Z,45.37
2023-01-25T04:13:55.702Z,46.43
2023-01-25T04:16:25.102Z,42.10
2023-01-25T04:18:52.273Z,46.93
2023-01-25T04:21:19.736Z,45.57
2023-01-25T04:23:49.135Z,43.87
2023-01-25T04:26:18.949Z,45.07
2023-01-25T04:28:48.730Z,44.73
2023-01-25T04:31:18.160Z,41.47
2023-01-25T04:33:48.661Z,44.93
2023-01-25T04:36:19.714Z,49.37
2023-01-25T04:38:51.591Z,47.60
2023-01-25T04:41:21.791Z,46.33
2023-01-25T04:43:53.338Z,52.30
2023-01-25T04:46:20.635Z,47.87
2023-01-25T04:48:47.834Z,48.33
2023-01-25T04:51:17.247Z,51.43
2023-01-25T04:53:44.553Z,49.67
2023-01-25T04:56:11.711Z,49.10
2023-01-25T04:58:43.918Z,48.53
2023-01-25T05:01:13.830Z,46.43
2023-01-25T05:03:41.036Z,49.03
2023-01-25T05:06:10.500Z,48.07
2023-01-25T05:08:37.695Z,47.50
2023-01-25T05:11:05.042Z,45.33
2023-01-25T05:13:32.239Z,47.97
2023-01-25T05:16:01.889Z,46.37
2023-01-25T05:18:35.800Z,50.77
2023-01-25T05:21:29.795Z,50.33
2023-01-25T05:23:59.158Z,51.47
2023-01-25T05:26:45.057Z,51.73
2023-01-25T05:29:14.643Z,42.43
2023-01-25T05:31:41.849Z,45.07
2023-01-25T05:34:09.686Z,45.30
2023-01-25T05:36:39.087Z,48.27
2023-01-25T05:39:09.135Z,45.43
2023-01-25T05:41:38.435Z,41.70
2023-01-25T05:44:05.836Z,43.40
2023-01-25T05:46:37.600Z,44.23
2023-01-25T05:49:10.016Z,45.07
2023-01-25T05:51:38.469Z,43.90
2023-01-25T05:54:06.645Z,46.17
2023-01-25T05:56:36.550Z,47.37
2023-01-25T05:59:05.953Z,45.80
2023-01-25T06:01:33.796Z,46.40
2023-01-25T06:04:05.902Z,46.50
2023-01-25T06:06:35.525Z,47.30
2023-01-25T06:09:02.756Z,47.90
2023-01-25T06:11:29.913Z,44.63
2023-01-25T06:13:57.405Z,50.03
2023-01-25T06:16:29.398Z,44.70
2023-01-25T06:18:56.546Z,45.67
2023-01-25T06:21:23.698Z,46.43
2023-01-25T06:23:55.435Z,49.63
2023-01-25T06:26:25.144Z,44.37
2023-01-25T06:28:56.979Z,45.70
2023-01-25T06:31:28.730Z,39.27
2023-01-25T06:33:56.028Z,43.87
2023-01-25T06:36:23.482Z,43.83
2023-01-25T06:38:52.618Z,38.33
2023-01-25T06:41:25.083Z,38.47
2023-01-25T06:43:55.835Z,39.83
2023-01-25T06:46:27.859Z,41.57
2023-01-25T06:48:59.603Z,39.73
2023-01-25T06:51:28.941Z,40.57
2023-01-25T06:54:01.955Z,42.00
2023-01-25T06:56:29.184Z,43.50
2023-01-25T06:58:56.291Z,46.27
2023-01-25T07:01:27.593Z,48.20
2023-01-25T07:03:59.678Z,39.80
2023-01-25T07:06:34.134Z,41.67
2023-01-25T07:09:11.850Z,38.97
2023-01-25T07:11:41.015Z,36.73
2023-01-25T07:14:13.056Z,41.90
2023-01-25T07:16:42.315Z,42.50
2023-01-25T07:19:14.369Z,44.03
2023-01-25T07:21:41.654Z,41.13
2023-01-25T07:24:15.573Z,40.90
2023-01-25T07:26:43.205Z,41.53
2023-01-25T07:29:16.016Z,43.13
2023-01-25T07:31:43.515Z,46.33
2023-01-25T07:34:14.430Z,47.00
2023-01-25T07:36:44.717Z,45.00
2023-01-25T07:39:12.051Z,44.03
2023-01-25T07:41:41.554Z,43.47
2023-01-25T07:44:13.461Z,44.07
2023-01-25T07:46:48.176Z,43.40
2023-01-25T07:49:17.777Z,46.97
2023-01-25T07:51:47.150Z,42.90
2023-01-25T07:54:14.441Z,46.47
2023-01-25T07:56:41.649Z,45.83
2023-01-25T07:59:11.376Z,43.63
2023-01-25T08:01:40.878Z,41.33
2023-01-25T08:04:08.860Z,48.03
2023-01-25T08:06:41.044Z,50.30
2023-01-25T08:09:17.400Z,44.40
2023-01-25T08:11:44.633Z,49.00
2023-01-25T08:14:14.287Z,48.90
2023-01-25T08:16:41.464Z,47.87
2023-01-25T08:19:11.869Z,48.67
2023-01-25T08:21:39.166Z,51.33
2023-01-25T08:24:09.652Z,52.73
2023-01-25T08:26:37.416Z,52.40
2023-01-25T08:29:06.152Z,49.27
2023-01-25T08:31:35.250Z,49.23
2023-01-25T08:34:03.144Z,47.93
2023-01-25T08:36:30.715Z,51.20
2023-01-25T08:39:02.602Z,51.73
2023-01-25T08:41:33.110Z,50.13
2023-01-25T08:44:03.544Z,52.30
2023-01-25T08:46:34.642Z,54.53
2023-01-25T08:49:04.649Z,58.40
2023-01-25T08:51:32.915Z,55.63
2023-01-25T08:54:05.510Z,53.87
2023-01-25T08:56:33.274Z,54.73
2023-01-25T08:59:06.030Z,56.97
2023-01-25T09:01:33.604Z,53.10
2023-01-25T09:04:00.925Z,47.80
2023-01-25T09:06:28.212Z,52.50
2023-01-25T09:08:59.354Z,52.47
2023-01-25T09:11:29.171Z,52.50
2023-01-25T09:14:00.424Z,51.20
2023-01-25T09:16:30.708Z,51.80
2023-01-25T09:19:00.833Z,52.60
2023-01-25T09:21:28.512Z,53.27
2023-01-25T09:24:07.529Z,53.33
2023-01-25T09:26:42.889Z,52.67
2023-01-25T09:29:12.282Z,51.03
2023-01-25T09:31:40.801Z,54.23
2023-01-25T09:34:13.815Z,55.70
2023-01-25T09:36:43.655Z,55.80
2023-01-25T09:39:14.494Z,56.47
2023-01-25T09:42:06.596Z,53.37
2023-01-25T09:45:00.886Z,55.37
2023-01-25T09:48:01.960Z,56.40
2023-01-25T09:50:48.183Z,54.63
2023-01-25T09:53:18.327Z,51.20
2023-01-25T09:55:55.926Z,52.50
2023-01-25T09:58:30.781Z,49.40
2023-01-25T10:01:33.108Z,52.20
2023-01-25T10:04:27.182Z,60.23
2023-01-25T10:07:01.806Z,56.33
2023-01-25T10:09:52.238Z,51.87
2023-01-25T10:12:24.043Z,50.07
2023-01-25T10:14:56.677Z,51.93
2023-01-25T10:17:34.989Z,52.00
2023-01-25T10:20:21.269Z,49.17
2023-01-25T10:23:01.448Z,51.47
2023-01-25T10:26:00.154Z,50.23
2023-01-25T10:28:41.270Z,50.83
2023-01-25T10:31:28.547Z,52.77
2023-01-25T10:33:59.293Z,49.87
2023-01-25T10:36:30.969Z,48.63
2023-01-25T10:39:01.101Z,52.90
2023-01-25T10:41:48.276Z,53.27
2023-01-25T10:44:24.516Z,51.67
2023-01-25T10:47:18.133Z,48.50
2023-01-25T10:49:56.433Z,53.00
2023-01-25T10:52:27.281Z,49.13
2023-01-25T10:55:20.479Z,48.17
2023-01-25T10:57:51.241Z,50.40
2023-01-25T11:00:39.671Z,49.93
2023-01-25T11:03:35.644Z,49.37
2023-01-25T11:06:03.049Z,53.37
2023-01-25T11:08:30.123Z,50.97
2023-01-25T11:10:59.067Z,51.80
2023-01-25T11:13:35.927Z,46.80
2023-01-25T11:16:04.962Z,50.87
2023-01-25T11:18:35.062Z,51.10
2023-01-25T11:21:06.525Z,50.77
2023-01-25T11:23:34.684Z,48.63
2023-01-25T11:26:19.570Z,50.63
2023-01-25T11:28:50.081Z,49.40
2023-01-25T11:31:23.622Z,52.60
2023-01-25T11:33:51.112Z,49.70
2023-01-25T11:36:30.208Z,53.40
2023-01-25T11:39:21.314Z,50.10
2023-01-25T11:42:28.772Z,51.17
2023-01-25T11:45:01.452Z,48.67
2023-01-25T11:47:46.655Z,52.83
2023-01-25T11:50:36.265Z,49.47
2023-01-25T11:53:28.345Z,53.40
2023-01-25T11:56:10.622Z,57.97
2023-01-25T11:59:13.267Z,54.53
2023-01-25T12:02:21.588Z,51.60
2023-01-25T12:05:21.769Z,54.33
2023-01-25T12:08:10.432Z,54.57
2023-01-25T12:10:47.252Z,53.37
2023-01-25T12:13:34.984Z,52.93
2023-01-25T12:16:02.151Z,55.37
2023-01-25T12:18:56.041Z,55.60
2023-01-25T12:21:51.624Z,56.87
2023-01-25T12:24:51.755Z,56.90
2023-01-25T12:27:46.815Z,57.27
2023-01-25T12:30:30.064Z,60.50
2023-01-25T12:33:14.261Z,60.47
2023-01-25T12:35:44.464Z,61.83
2023-01-25T12:38:20.322Z,64.60
2023-01-25T12:41:16.360Z,61.80
2023-01-25T12:43:57.712Z,62.57
2023-01-25T12:46:46.569Z,60.37
2023-01-25T12:49:28.534Z,56.70
2023-01-25T12:51:58.971Z,64.87
2023-01-25T12:54:38.181Z,61.00
2023-01-25T12:57:15.788Z,59.43
2023-01-25T12:59:57.248Z,61.10
2023-01-25T13:02:27.664Z,62.67
2023-01-25T13:05:03.063Z,62.33
2023-01-25T13:07:42.888Z,58.73
2023-01-25T13:10:21.778Z,64.67
2023-01-25T13:13:05.444Z,62.40
2023-01-25T13:15:47.107Z,62.10
2023-01-25T13:18:36.640Z,59.83
2023-01-25T13:21:11.619Z,59.27
2023-01-25T13:23:47.935Z,54.07
2023-01-25T13:26:24.249Z,62.60
2023-01-25T13:28:53.351Z,63.20
2023-01-25T13:31:53.045Z,54.00
2023-01-25T13:34:39.237Z,52.60
2023-01-25T13:37:35.799Z,57.10
2023-01-25T13:40:26.517Z,58.20
2023-01-25T13:43:01.826Z,51.00
2023-01-25T13:45:36.137Z,57.53
2023-01-25T13:48:11.562Z,52.57
2023-01-25T13:50:45.534Z,52.13
2023-01-25T13:53:15.789Z,56.63
2023-01-25T13:55:51.914Z,61.17
2023-01-25T13:58:26.523Z,58.90
2023-01-25T14:01:04.317Z,54.13
2023-01-25T14:03:35.732Z,51.93
2023-01-25T14:06:07.721Z,50.70
2023-01-25T14:08:34.964Z,51.20
2023-01-25T14:11:05.401Z,49.30
2023-01-25T14:13:32.544Z,54.20
2023-01-25T14:16:01.895Z,53.23
2023-01-25T14:18:34.615Z,53.03
2023-01-25T14:21:21.455Z,54.13
2023-01-25T14:23:49.632Z,56.43
2023-01-25T14:26:27.926Z,58.03
2023-01-25T14:29:01.947Z,54.17
2023-01-25T14:31:36.491Z,53.63
2023-01-25T14:34:08.577Z,55.07
2023-01-25T14:36:38.023Z,54.10
2023-01-25T14:39:24.998Z,56.40
2023-01-25T14:42:00.926Z,58.13
2023-01-25T14:44:29.937Z,59.17
2023-01-25T14:47:32.380Z,59.83
2023-01-25T14:50:32.894Z,56.13
2023-01-25T14:53:29.390Z,52.53
2023-01-25T14:55:56.605Z,58.83
2023-01-25T14:58:25.384Z,57.47
2023-01-25T15:01:01.462Z,56.27
2023-01-25T15:03:33.978Z,59.13
2023-01-25T15:06:05.202Z,52.83
2023-01-25T15:08:35.132Z,53.90
2023-01-25T15:11:34.686Z,56.00
2023-01-25T15:14:07.481Z,55.07
2023-01-25T15:16:37.164Z,53.80
2023-01-25T15:19:04.377Z,59.53
2023-01-25T15:21:33.221Z,63.40
2023-01-25T15:24:08.458Z,62.63
2023-01-25T15:26:37.880Z,62.53
2023-01-25T15:29:27.143Z,63.70
2023-01-25T15:31:56.144Z,61.97
2023-01-25T15:34:32.488Z,61.47
2023-01-25T15:36:59.741Z,61.37
2023-01-25T15:39:29.974Z,67.27
2023-01-25T15:41:57.223Z,67.30
2023-01-25T15:44:28.430Z,63.30
2023-01-25T15:46:58.029Z,61.93
2023-01-25T15:49:32.776Z,64.13
2023-01-25T15:52:02.113Z,67.00
2023-01-25T15:54:31.415Z,66.27
2023-01-25T15:57:01.056Z,67.53
2023-01-25T15:59:28.733Z,66.10
2023-01-25T16:01:58.162Z,67.60
2023-01-25T16:04:26.301Z,72.27
2023-01-25T16:06:54.832Z,70.17
2023-01-25T16:09:29.471Z,75.93
2023-01-25T16:12:01.541Z,66.67
2023-01-25T16:14:33.723Z,71.27
2023-01-25T16:17:05.783Z,76.07
2023-01-25T16:19:35.345Z,76.90
2023-01-25T16:22:02.496Z,73.57
2023-01-25T16:24:30.068Z,74.90
2023-01-25T16:27:03.530Z,80.03
2023-01-25T16:29:33.683Z,73.27
2023-01-25T16:32:03.515Z,74.50
2023-01-25T16:34:33.628Z,73.57
2023-01-25T16:37:01.753Z,78.63
2023-01-25T16:39:32.241Z,71.97
2023-01-25T16:42:01.680Z,79.97
2023-01-25T16:44:30.878Z,82.47
2023-01-25T16:46:58.157Z,84.37
2023-01-25T16:49:27.199Z,88.17
2023-01-25T16:52:03.099Z,83.37
2023-01-25T16:54:31.339Z,82.83
2023-01-25T16:57:01.751Z,80.10
2023-01-25T16:59:33.948Z,75.70
2023-01-25T17:02:03.297Z,78.87
2023-01-25T17:04:33.311Z,74.87
2023-01-25T17:07:02.831Z,71.90
2023-01-25T17:09:37.941Z,77.97
2023-01-25T17:12:05.619Z,74.07
2023-01-25T17:14:38.830Z,73.10
2023-01-25T17:17:05.934Z,76.73
2023-01-25T17:19:35.567Z,75.73
2023-01-25T17:22:04.869Z,74.07
2023-01-25T17:24:36.577Z,71.50
2023-01-25T17:27:08.261Z,71.27
2023-01-25T17:29:35.396Z,75.50
2023-01-25T17:32:04.763Z,75.07
2023-01-25T17:34:36.685Z,74.70
2023-01-25T17:37:08.272Z,75.03
2023-01-25T17:39:35.491Z,79.70
2023-01-25T17:42:06.952Z,76.37
2023-01-25T17:44:36.582Z,77.90
2023-01-25T17:47:04.315Z,82.07
2023-01-25T17:49:31.783Z,76.07
2023-01-25T17:51:58.969Z,82.23
2023-01-25T17:54:28.701Z,75.17
2023-01-25T17:56:58.323Z,77.53
2023-01-25T17:59:25.497Z,81.53
2023-01-25T18:01:57.898Z,78.10
2023-01-25T18:04:27.158Z,79.47
2023-01-25T18:06:54.351Z,83.17
2023-01-25T18:09:21.550Z,85.23
2023-01-25T18:11:48.801Z,85.60
2023-01-25T18:14:16.864Z,81.63
2023-01-25T18:16:44.818Z,83.20
2023-01-25T18:19:14.953Z,82.33
2023-01-25T18:21:44.552Z,84.73
2023-01-25T18:24:33.626Z,92.47
2023-01-25T18:27:11.209Z,79.80
2023-01-25T18:29:52.813Z,90.90
2023-01-25T18:32:20.141Z,84.43
2023-01-25T18:34:48.276Z,84.53
2023-01-25T18:37:21.022Z,83.80
2023-01-25T18:39:52.646Z,82.10
2023-01-25T18:42:23.413Z,86.67
2023-01-25T18:44:52.697Z,81.97
2023-01-25T18:47:22.082Z,82.10
2023-01-25T18:49:50.744Z,83.87
2023-01-25T18:52:19.762Z,83.30
2023-01-25T18:54:49.434Z,83.23
2023-01-25T18:57:19.397Z,85.80
2023-01-25T18:59:46.619Z,87.83
2023-01-25T19:02:17.764Z,86.00
2023-01-25T19:04:47.347Z,81.80
2023-01-25T19:07:14.844Z,84.23
2023-01-25T19:09:44.907Z,75.30
2023-01-25T19:12:12.117Z,85.43
2023-01-25T19:14:43.803Z,75.00
2023-01-25T19:17:10.993Z,78.53
2023-01-25T19:19:38.241Z,86.30
2023-01-25T19:22:10.206Z,78.37
2023-01-25T19:24:37.470Z,76.77
2023-01-25T19:27:05.439Z,79.20
2023-01-25T19:29:36.787Z,85.57
2023-01-25T19:32:10.849Z,78.90
2023-01-25T19:34:38.772Z,80.00
2023-01-25T19:37:08.513Z,77.93
2023-01-25T19:39:38.129Z,82.73
2023-01-25T19:42:08.019Z,85.50
2023-01-25T19:44:35.264Z,83.23
2023-01-25T19:47:03.161Z,85.80
2023-01-25T19:49:35.560Z,86.83
2023-01-25T19:52:02.747Z,82.63
2023-01-25T19:54:31.475Z,84.60
2023-01-25T19:57:00.718Z,75.63
2023-01-25T19:59:29.027Z,81.30
2023-01-25T20:01:56.413Z,77.43
2023-01-25T20:04:26.627Z,81.90
2023-01-25T20:06:59.046Z,85.80
2023-01-25T20:09:28.160Z,79.50
2023-01-25T20:11:58.286Z,82.63
2023-01-25T20:14:27.886Z,79.60
2023-01-25T20:16:55.125Z,85.30
2023-01-25T20:19:22.465Z,81.93
2023-01-25T20:21:54.442Z,76.80
2023-01-25T20:24:22.083Z,78.70
2023-01-25T20:26:52.435Z,81.83
2023-01-25T20:29:20.076Z,83.10
2023-01-25T20:31:49.733Z,82.57
2023-01-25T20:34:23.826Z,82.50
2023-01-25T20:36:55.415Z,86.60
2023-01-25T20:39:23.024Z,82.07
2023-01-25T20:41:53.468Z,87.60
2023-01-25T20:44:23.410Z,77.97
2023-01-25T20:46:54.508Z,75.37
2023-01-25T20:49:21.990Z,78.67
2023-01-25T20:51:49.235Z,79.57
2023-01-25T20:54:20.655Z,84.00
2023-01-25T20:56:50.707Z,72.83
2023-01-25T20:59:19.268Z,78.40
2023-01-25T21:01:46.848Z,75.13
2023-01-25T21:04:16.557Z,72.40
2023-01-25T21:06:48.565Z,76.57
2023-01-25T21:09:17.821Z,73.30
2023-01-25T21:11:47.360Z,78.60
2023-01-25T21:14:14.635Z,72.93
2023-01-25T21:16:44.403Z,75.53
2023-01-25T21:19:11.632Z,80.50
2023-01-25T21:21:41.015Z,76.87
2023-01-25T21:24:09.441Z,83.23
2023-01-25T21:26:38.262Z,81.93
2023-01-25T21:29:12.717Z,83.93
2023-01-25T21:31:45.358Z,81.43
2023-01-25T21:34:15.236Z,83.43
2023-01-25T21:36:44.861Z,78.13
2023-01-25T21:39:14.258Z,75.47
2023-01-25T21:41:46.246Z,80.60
2023-01-25T21:44:37.093Z,78.40
2023-01-25T21:47:29.939Z,80.57
2023-01-25T21:50:12.751Z,81.63
2023-01-25T21:52:42.406Z,79.50
2023-01-25T21:55:14.226Z,86.43
2023-01-25T21:57:46.925Z,86.57
2023-01-25T22:00:17.269Z,84.47
2023-01-25T22:02:46.975Z,80.27
2023-01-25T22:05:16.444Z,83.23
2023-01-25T22:07:45.868Z,81.17
2023-01-25T22:10:15.521Z,86.53
2023-01-25T22:12:42.675Z,78.53
2023-01-25T22:15:14.541Z,88.33
2023-01-25T22:17:44.242Z,86.97
2023-01-25T22:20:12.133Z,88.03
2023-01-25T22:22:39.519Z,82.73
2023-01-25T22:25:12.063Z,89.33
2023-01-25T22:27:52.860Z,83.97
2023-01-25T22:30:25.180Z,90.07
2023-01-25T22:32:52.303Z,83.80
2023-01-25T22:35:19.437Z,87.43
2023-01-25T22:37:46.573Z,90.90
2023-01-25T22:40:16.244Z,96.57
2023-01-25T22:42:45.487Z,94.37
2023-01-25T22:45:12.679Z,88.17
2023-01-25T22:47:43.465Z,91.93
2023-01-25T22:50:11.427Z,89.87
2023-01-25T22:52:38.802Z,89.17
2023-01-25T22:55:08.539Z,91.43
2023-01-25T22:57:35.707Z,92.97
2023-01-25T23:00:03.147Z,90.87
2023-01-25T23:02:33.714Z,96.43
2023-01-25T23:05:00.836Z,88.17
2023-01-25T23:07:30.057Z,84.23
2023-01-25T23:09:57.242Z,90.27
2023-01-25T23:12:27.402Z,85.80
2023-01-25T23:15:02.636Z,93.43
2023-01-25T23:17:50.646Z,96.47
2023-01-25T23:20:22.380Z,89.90
2023-01-25T23:22:51.259Z,93.27
2023-01-25T23:25:18.427Z,94.00
2023-01-25T23:27:47.895Z,93.90
2023-01-25T23:30:15.611Z,89.27
2023-01-25T23:32:49.768Z,88.57
2023-01-25T23:35:21.162Z,93.47
2023-01-25T23:37:50.757Z,86.57
2023-01-25T23:40:18.040Z,84.03
2023-01-25T23:42:45.158Z,84.20
2023-01-25T23:45:14.576Z,85.10
2023-01-25T23:47:45.082Z,83.23
2023-01-25T23:50:12.603Z,83.60
2023-01-25T23:52:42.369Z,83.93
2023-01-25T23:55:12.223Z,80.67
2023-01-25T23:57:39.458Z,82.97
